First Ferry Vi — VRS4293 — position and weather

sailwx.info

Track history (hours):
 
Tides and Currents Weather Stations Pressure Air Temp Water Temp Dewpoint Dewpoint Depression Visibility Wind Speed Wind Dir Waves Ship Positions

First Ferry Vi

Last reported at 2014-Sep-20 15:33 UTC. Time now 2014-Sep-20 20:07 UTC.
Position N 22°17' E 114°10'.

Length 36 m; draft 1.8 m.

Type: Ship. MMSI: 477995028.

Date/timePositionNaut miles runAvg speedWind from/ knotsBaromVisibWave heightAir tempDewpointWater temp
2014-Sep-20 15:33N 22°17' E 114°10'1 0.9
2014-Sep-20 14:09N 22°18' E 114°08'1 0.5
2014-Sep-20 11:26N 22°17' E 114°10'2 1.2
2014-Sep-20 10:09N 22°18' E 114°08'2 3.5
2014-Sep-20 09:32N 22°17' E 114°10'1 0.2
2014-Sep-20 07:19N 22°17' E 114°10'0 0.2
2014-Sep-20 05:27N 22°17' E 114°10'2 2.4
2014-Sep-20 04:33N 22°19' E 114°12'2 2.1
2014-Sep-20 03:30N 22°17' E 114°10'1 0.6
2014-Sep-20 01:32N 22°18' E 114°09'1 1.0
2014-Sep-20 00:32N 22°19' E 114°09'2 1.2
2014-Sep-19 23:09N 22°18' E 114°08'0 0.0
2014-Sep-19 15:20N 22°18' E 114°08'0 0.1
2014-Sep-19 14:09N 22°18' E 114°08'2 2.4
2014-Sep-19 13:28N 22°17' E 114°10'0 0.2
2014-Sep-19 12:34N 22°17' E 114°10'1 1.2
2014-Sep-19 11:24N 22°18' E 114°08'0 0.2
2014-Sep-19 10:09N 22°18' E 114°08'4 6.3
2014-Sep-19 09:33N 22°19' E 114°12'0 0.3
2014-Sep-19 08:33N 22°19' E 114°12'0 0.0
2014-Sep-19 07:33N 22°19' E 114°12'0 0.0
2014-Sep-19 06:33N 22°19' E 114°12'2 1.9
2014-Sep-19 05:30N 22°17' E 114°10'1 0.3
2014-Sep-19 03:20N 22°17' E 114°10'1 0.4
2014-Sep-19 01:33N 22°17' E 114°10'2 1.6
2014-Sep-19 00:32N 22°18' E 114°09'1 1.0
2014-Sep-18 23:09N 22°18' E 114°08'2 0.2
2014-Sep-18 15:07N 22°17' E 114°10'2 1.7
2014-Sep-18 14:09N 22°18' E 114°08'1 0.9
2014-Sep-18 12:32N 22°17' E 114°09'1 1.0
2014-Sep-18 11:24N 22°18' E 114°08'0 0.3
2014-Sep-18 10:10N 22°18' E 114°08'3 5.2
2014-Sep-18 09:31N 22°18' E 114°11'1 1.0
2014-Sep-18 08:33N 22°19' E 114°12'0 0.0
2014-Sep-18 07:33N 22°19' E 114°12'0 0.0
2014-Sep-18 06:33N 22°19' E 114°12'3 2.3
2014-Sep-18 05:27N 22°17' E 114°10'0 0.0
2014-Sep-18 03:19N 22°17' E 114°10'1 0.4
2014-Sep-18 01:24N 22°18' E 114°09'1 0.6
2014-Sep-18 00:33N 22°19' E 114°09'4 3.1
2014-Sep-17 23:15N 22°17' E 114°05'4 0.5
2014-Sep-17 15:08N 22°17' E 114°10'2 1.6
2014-Sep-17 14:10N 22°18' E 114°08'2 2.4
2014-Sep-17 13:31N 22°17' E 114°10'1 0.9
2014-Sep-17 12:09N 22°18' E 114°08'1 2.0
2014-Sep-17 11:33N 22°17' E 114°10'1 1.1
2014-Sep-17 10:28N 22°18' E 114°08'1 0.6
2014-Sep-17 08:26N 22°17' E 114°10'2 2.9
2014-Sep-17 07:33N 22°19' E 114°12'0 0.4
2014-Sep-17 06:33N 22°18' E 114°12'2 1.0
2014-Sep-17 04:19N 22°17' E 114°10'0 0.0
2014-Sep-17 02:30N 22°17' E 114°10'1 0.7
2014-Sep-17 00:33N 22°19' E 114°09'2 1.1
2014-Sep-16 23:09N 22°18' E 114°08'1 0.2
2014-Sep-16 15:33N 22°17' E 114°10'2 1.1
2014-Sep-16 14:09N 22°18' E 114°08'2 2.8
2014-Sep-16 13:33N 22°17' E 114°10'1 1.0
2014-Sep-16 12:09N 22°18' E 114°08'1 2.2
2014-Sep-16 11:32N 22°17' E 114°10'1 1.2
2014-Sep-16 10:28N 22°18' E 114°08'1 0.7
2014-Sep-16 08:28N 22°17' E 114°10'1 0.2
2014-Sep-16 05:33N 22°18' E 114°09'1 0.3
2014-Sep-16 03:18N 22°17' E 114°10'1 0.1
2014-Sep-15 16:34N 22°19' E 114°09'2 1.1
2014-Sep-15 15:09N 22°17' E 114°10'1 1.4
2014-Sep-15 14:09N 22°18' E 114°08'2 2.3
2014-Sep-15 13:23N 22°17' E 114°10'1 0.9
2014-Sep-15 12:33N 22°18' E 114°09'1 0.8
2014-Sep-15 11:23N 22°18' E 114°08'0 0.0
2014-Sep-15 10:09N 22°18' E 114°08'1 0.2
2014-Sep-15 05:30N 22°18' E 114°09'1 0.5
2014-Sep-15 03:18N 22°17' E 114°10'0 0.2
2014-Sep-15 01:33N 22°17' E 114°10'1 1.4
2014-Sep-15 00:33N 22°19' E 114°09'1 1.0
2014-Sep-14 23:09N 22°18' E 114°08'2 0.2
2014-Sep-14 15:17N 22°17' E 114°10'0 0.0
2014-Sep-14 13:08N 22°17' E 114°10'0 0.0
2014-Sep-14 11:09N 22°17' E 114°10'0 0.0
2014-Sep-14 09:09N 22°17' E 114°10'0 0.0
2014-Sep-14 07:08N 22°17' E 114°10'0 0.0
2014-Sep-14 05:11N 22°17' E 114°10'1 1.2
2014-Sep-14 04:09N 22°18' E 114°08'1 0.3
2014-Sep-14 01:33N 22°17' E 114°09'0 0.0
2014-Sep-13 16:33N 22°17' E 114°10'0 0.1
2014-Sep-13 14:31N 22°17' E 114°09'1 1.0
2014-Sep-13 13:29N 22°18' E 114°08'0 0.1
2014-Sep-13 11:09N 22°18' E 114°08'0 0.1
2014-Sep-13 09:19N 22°18' E 114°08'0 0.5
2014-Sep-13 08:33N 22°18' E 114°09'0 0.1
2014-Sep-13 05:19N 22°18' E 114°08'2 2.3
2014-Sep-13 04:33N 22°17' E 114°10'1 0.2
2014-Sep-13 02:13N 22°17' E 114°10'1 1.3
2014-Sep-13 01:05N 22°19' E 114°09'1 1.0
2014-Sep-12 23:33N 22°17' E 114°10'0 0.0
2014-Sep-12 16:33N 22°17' E 114°10'0 0.1
2014-Sep-12 14:33N 22°17' E 114°10'2 0.5
2014-Sep-12 11:10N 22°18' E 114°08'1 0.9
2014-Sep-12 10:33N 22°18' E 114°09'0 0.3
2014-Sep-12 09:19N 22°18' E 114°08'0 0.1
2014-Sep-12 07:19N 22°18' E 114°08'2 1.9
2014-Sep-12 06:27N 22°17' E 114°10'0 0.1
2014-Sep-12 04:19N 22°17' E 114°10'0 0.1
2014-Sep-12 02:20N 22°17' E 114°10'2 2.9
2014-Sep-12 01:33N 22°19' E 114°12'3 1.2
2014-Sep-11 23:29N 22°17' E 114°10'0 0.0
2014-Sep-11 16:34N 22°18' E 114°09'0 0.2
2014-Sep-11 14:24N 22°17' E 114°10'1 1.4
2014-Sep-11 13:28N 22°18' E 114°08'0 0.0
2014-Sep-11 11:11N 22°18' E 114°08'1 2.2
2014-Sep-11 10:32N 22°17' E 114°10'1 0.3
2014-Sep-11 06:33N 22°18' E 114°09'1 0.5
2014-Sep-11 04:19N 22°17' E 114°10'0 0.0
2014-Sep-11 02:16N 22°17' E 114°10'1 1.1
2014-Sep-11 01:07N 22°19' E 114°09'1 0.8
2014-Sep-10 23:29N 22°17' E 114°10'0 0.0
2014-Sep-10 16:33N 22°17' E 114°10'  
Track history (hours):
 
Tides and Currents Weather Stations Pressure Air Temp Water Temp Dewpoint Dewpoint Depression Visibility Wind Speed Wind Dir Waves Ship Positions

First Ferry Vi

Last reported at 2014-Sep-20 15:33 UTC. Time now 2014-Sep-20 20:07 UTC.
Position N 22°17' E 114°10'.

Length 36 m; draft 1.8 m.

Type: Ship. MMSI: 477995028.

Date/timePositionNaut miles runAvg speedWind from/ knotsBaromVisibWave heightAir tempDewpointWater temp
2014-Sep-20 15:33N 22°17' E 114°10'1 0.9
2014-Sep-20 14:09N 22°18' E 114°08'1 0.5
2014-Sep-20 11:26N 22°17' E 114°10'2 1.2
2014-Sep-20 10:09N 22°18' E 114°08'2 3.5
2014-Sep-20 09:32N 22°17' E 114°10'1 0.2
2014-Sep-20 07:19N 22°17' E 114°10'0 0.2
2014-Sep-20 05:27N 22°17' E 114°10'2 2.4
2014-Sep-20 04:33N 22°19' E 114°12'2 2.1
2014-Sep-20 03:30N 22°17' E 114°10'1 0.6
2014-Sep-20 01:32N 22°18' E 114°09'1 1.0
2014-Sep-20 00:32N 22°19' E 114°09'2 1.2
2014-Sep-19 23:09N 22°18' E 114°08'0 0.0
2014-Sep-19 15:20N 22°18' E 114°08'0 0.1
2014-Sep-19 14:09N 22°18' E 114°08'2 2.4
2014-Sep-19 13:28N 22°17' E 114°10'0 0.2
2014-Sep-19 12:34N 22°17' E 114°10'1 1.2
2014-Sep-19 11:24N 22°18' E 114°08'0 0.2
2014-Sep-19 10:09N 22°18' E 114°08'4 6.3
2014-Sep-19 09:33N 22°19' E 114°12'0 0.3
2014-Sep-19 08:33N 22°19' E 114°12'0 0.0
2014-Sep-19 07:33N 22°19' E 114°12'0 0.0
2014-Sep-19 06:33N 22°19' E 114°12'2 1.9
2014-Sep-19 05:30N 22°17' E 114°10'1 0.3
2014-Sep-19 03:20N 22°17' E 114°10'1 0.4
2014-Sep-19 01:33N 22°17' E 114°10'2 1.6
2014-Sep-19 00:32N 22°18' E 114°09'1 1.0
2014-Sep-18 23:09N 22°18' E 114°08'2 0.2
2014-Sep-18 15:07N 22°17' E 114°10'2 1.7
2014-Sep-18 14:09N 22°18' E 114°08'1 0.9
2014-Sep-18 12:32N 22°17' E 114°09'1 1.0
2014-Sep-18 11:24N 22°18' E 114°08'0 0.3
2014-Sep-18 10:10N 22°18' E 114°08'3 5.2
2014-Sep-18 09:31N 22°18' E 114°11'1 1.0
2014-Sep-18 08:33N 22°19' E 114°12'0 0.0
2014-Sep-18 07:33N 22°19' E 114°12'0 0.0
2014-Sep-18 06:33N 22°19' E 114°12'3 2.3
2014-Sep-18 05:27N 22°17' E 114°10'0 0.0
2014-Sep-18 03:19N 22°17' E 114°10'1 0.4
2014-Sep-18 01:24N 22°18' E 114°09'1 0.6
2014-Sep-18 00:33N 22°19' E 114°09'4 3.1
2014-Sep-17 23:15N 22°17' E 114°05'4 0.5
2014-Sep-17 15:08N 22°17' E 114°10'2 1.6
2014-Sep-17 14:10N 22°18' E 114°08'2 2.4
2014-Sep-17 13:31N 22°17' E 114°10'1 0.9
2014-Sep-17 12:09N 22°18' E 114°08'1 2.0
2014-Sep-17 11:33N 22°17' E 114°10'1 1.1
2014-Sep-17 10:28N 22°18' E 114°08'1 0.6
2014-Sep-17 08:26N 22°17' E 114°10'2 2.9
2014-Sep-17 07:33N 22°19' E 114°12'0 0.4
2014-Sep-17 06:33N 22°18' E 114°12'2 1.0
2014-Sep-17 04:19N 22°17' E 114°10'0 0.0
2014-Sep-17 02:30N 22°17' E 114°10'1 0.7
2014-Sep-17 00:33N 22°19' E 114°09'2 1.1
2014-Sep-16 23:09N 22°18' E 114°08'1 0.2
2014-Sep-16 15:33N 22°17' E 114°10'2 1.1
2014-Sep-16 14:09N 22°18' E 114°08'2 2.8
2014-Sep-16 13:33N 22°17' E 114°10'1 1.0
2014-Sep-16 12:09N 22°18' E 114°08'1 2.2
2014-Sep-16 11:32N 22°17' E 114°10'1 1.2
2014-Sep-16 10:28N 22°18' E 114°08'1 0.7
2014-Sep-16 08:28N 22°17' E 114°10'1 0.2
2014-Sep-16 05:33N 22°18' E 114°09'1 0.3
2014-Sep-16 03:18N 22°17' E 114°10'1 0.1
2014-Sep-15 16:34N 22°19' E 114°09'2 1.1
2014-Sep-15 15:09N 22°17' E 114°10'1 1.4
2014-Sep-15 14:09N 22°18' E 114°08'2 2.3
2014-Sep-15 13:23N 22°17' E 114°10'1 0.9
2014-Sep-15 12:33N 22°18' E 114°09'1 0.8
2014-Sep-15 11:23N 22°18' E 114°08'0 0.0
2014-Sep-15 10:09N 22°18' E 114°08'1 0.2
2014-Sep-15 05:30N 22°18' E 114°09'1 0.5
2014-Sep-15 03:18N 22°17' E 114°10'0 0.2
2014-Sep-15 01:33N 22°17' E 114°10'1 1.4
2014-Sep-15 00:33N 22°19' E 114°09'1 1.0
2014-Sep-14 23:09N 22°18' E 114°08'2 0.2
2014-Sep-14 15:17N 22°17' E 114°10'0 0.0
2014-Sep-14 13:08N 22°17' E 114°10'0 0.0
2014-Sep-14 11:09N 22°17' E 114°10'0 0.0
2014-Sep-14 09:09N 22°17' E 114°10'0 0.0
2014-Sep-14 07:08N 22°17' E 114°10'0 0.0
2014-Sep-14 05:11N 22°17' E 114°10'1 1.2
2014-Sep-14 04:09N 22°18' E 114°08'1 0.3
2014-Sep-14 01:33N 22°17' E 114°09'0 0.0
2014-Sep-13 16:33N 22°17' E 114°10'0 0.1
2014-Sep-13 14:31N 22°17' E 114°09'1 1.0
2014-Sep-13 13:29N 22°18' E 114°08'0 0.1
2014-Sep-13 11:09N 22°18' E 114°08'0 0.1
2014-Sep-13 09:19N 22°18' E 114°08'0 0.5
2014-Sep-13 08:33N 22°18' E 114°09'0 0.1
2014-Sep-13 05:19N 22°18' E 114°08'2 2.3
2014-Sep-13 04:33N 22°17' E 114°10'1 0.2
2014-Sep-13 02:13N 22°17' E 114°10'1 1.3
2014-Sep-13 01:05N 22°19' E 114°09'1 1.0
2014-Sep-12 23:33N 22°17' E 114°10'0 0.0
2014-Sep-12 16:33N 22°17' E 114°10'0 0.1
2014-Sep-12 14:33N 22°17' E 114°10'2 0.5
2014-Sep-12 11:10N 22°18' E 114°08'1 0.9
2014-Sep-12 10:33N 22°18' E 114°09'0 0.3
2014-Sep-12 09:19N 22°18' E 114°08'0 0.1
2014-Sep-12 07:19N 22°18' E 114°08'2 1.9
2014-Sep-12 06:27N 22°17' E 114°10'0 0.1
2014-Sep-12 04:19N 22°17' E 114°10'0 0.1
2014-Sep-12 02:20N 22°17' E 114°10'2 2.9
2014-Sep-12 01:33N 22°19' E 114°12'3 1.2
2014-Sep-11 23:29N 22°17' E 114°10'0 0.0
2014-Sep-11 16:34N 22°18' E 114°09'0 0.2
2014-Sep-11 14:24N 22°17' E 114°10'1 1.4
2014-Sep-11 13:28N 22°18' E 114°08'0 0.0
2014-Sep-11 11:11N 22°18' E 114°08'1 2.2
2014-Sep-11 10:32N 22°17' E 114°10'1 0.3
2014-Sep-11 06:33N 22°18' E 114°09'1 0.5
2014-Sep-11 04:19N 22°17' E 114°10'0 0.0
2014-Sep-11 02:16N 22°17' E 114°10'1 1.1
2014-Sep-11 01:07N 22°19' E 114°09'1 0.8
2014-Sep-10 23:29N 22°17' E 114°10'0 0.0
2014-Sep-10 16:33N 22°17' E 114°10'  

Dump ship's entire track history